To NAV CANADA Home Page Login to a new session Search on AWWS site Disclaimer Vers la page française équivalente Tips FAQ What's new on the site To the Forecasts and Observations / NOTAM section To "File a Flight Plan" website Publications and other links Update of the User's profile FIC Telephone Numbers My Weather Data Folder Route Weather Data Regional Weather Data Local Weather Data To the Forecasts and Observations / NOTAM section
Request Generated 08/19/2022 at 02:33:12 UTC . Weather information available at that time is displayed.

METAR/TAF

MARATHON/ON    

LWIS CYSP 190200Z AUTO 29003KT 15/15 A2985=
LWIS CYSP 190100Z AUTO VRB03KT 16/16 A2984=
LWIS CYSP 190000Z AUTO 24003KT 16/16 A2984=

*** REMARK        : Forecast period has ended; this was the last TAF issued
*** REMARQUE : La période de prévision est échue; ceci était le dernier TAF qui a été émis
TAF AMD CYSP 181647Z 1816/1821 VRB03KT 3SM -SHRA BR BKN003 OVC009
TEMPO 1816/1821 6SM -SHRA BR SCT003 OVC010 PROB30 1818/1821 2SM
TSRA BR BKN003 OVC015CB
RMK NXT FCST BY 191400Z=
Your time UTC time
Weather data provided by Environment Canada and NAV CANADA